sensor_id;sensor_type;location;lat;lon;timestamp;temperature;humidity
41644;DHT22;44236;48.098;11.582;2023-04-24T00:00:25;21.30;51.40
41644;DHT22;44236;48.098;11.582;2023-04-24T00:02:51;21.30;51.30
41644;DHT22;44236;48.098;11.582;2023-04-24T00:05:17;21.30;51.30
41644;DHT22;44236;48.098;11.582;2023-04-24T00:07:45;21.20;51.30
41644;DHT22;44236;48.098;11.582;2023-04-24T00:10:11;21.20;51.20
41644;DHT22;44236;48.098;11.582;2023-04-24T00:12:37;21.20;51.30
41644;DHT22;44236;48.098;11.582;2023-04-24T00:15:04;21.20;51.20
41644;DHT22;44236;48.098;11.582;2023-04-24T00:17:30;21.20;51.20
41644;DHT22;44236;48.098;11.582;2023-04-24T00:19:56;21.20;51.10
41644;DHT22;44236;48.098;11.582;2023-04-24T00:22:27;21.20;51.20
41644;DHT22;44236;48.098;11.582;2023-04-24T00:24:53;21.20;51.10
41644;DHT22;44236;48.098;11.582;2023-04-24T00:27:19;21.20;51.20
41644;DHT22;44236;48.098;11.582;2023-04-24T00:29:44;21.20;51.20
41644;DHT22;44236;48.098;11.582;2023-04-24T00:32:10;21.20;51.30
41644;DHT22;44236;48.098;11.582;2023-04-24T00:34:36;21.20;51.20
41644;DHT22;44236;48.098;11.582;2023-04-24T00:37:01;21.20;51.20
41644;DHT22;44236;48.098;11.582;2023-04-24T00:39:27;21.20;51.10
41644;DHT22;44236;48.098;11.582;2023-04-24T00:41:53;21.10;51.20
41644;DHT22;44236;48.098;11.582;2023-04-24T00:44:19;21.20;51.20
41644;DHT22;44236;48.098;11.582;2023-04-24T00:46:46;20.50;50.90
41644;DHT22;44236;48.098;11.582;2023-04-24T00:49:13;21.10;51.10
41644;DHT22;44236;48.098;11.582;2023-04-24T00:51:39;21.10;51.00
41644;DHT22;44236;48.098;11.582;2023-04-24T00:54:06;21.10;51.10
41644;DHT22;44236;48.098;11.582;2023-04-24T00:56:31;21.10;51.10
41644;DHT22;44236;48.098;11.582;2023-04-24T00:58:58;21.10;51.10
41644;DHT22;44236;48.098;11.582;2023-04-24T01:01:24;21.10;51.10
41644;DHT22;44236;48.098;11.582;2023-04-24T01:03:51;21.10;51.10
41644;DHT22;44236;48.098;11.582;2023-04-24T01:06:17;21.10;51.10
41644;DHT22;44236;48.098;11.582;2023-04-24T01:08:43;21.10;51.10
41644;DHT22;44236;48.098;11.582;2023-04-24T01:11:10;21.10;51.10
41644;DHT22;44236;48.098;11.582;2023-04-24T01:13:36;21.10;51.00
41644;DHT22;44236;48.098;11.582;2023-04-24T01:16:02;21.10;51.10
41644;DHT22;44236;48.098;11.582;2023-04-24T01:18:28;21.10;51.00
41644;DHT22;44236;48.098;11.582;2023-04-24T01:20:57;21.10;51.50
41644;DHT22;44236;48.098;11.582;2023-04-24T01:23:23;21.10;51.00
41644;DHT22;44236;48.098;11.582;2023-04-24T01:25:49;21.00;51.00
41644;DHT22;44236;48.098;11.582;2023-04-24T01:28:16;21.00;50.90
41644;DHT22;44236;48.098;11.582;2023-04-24T01:30:42;21.00;51.00
41644;DHT22;44236;48.098;11.582;2023-04-24T01:33:08;21.00;51.00
41644;DHT22;44236;48.098;11.582;2023-04-24T01:35:33;21.00;51.00
41644;DHT22;44236;48.098;11.582;2023-04-24T01:37:59;21.00;50.90
41644;DHT22;44236;48.098;11.582;2023-04-24T01:40:25;21.00;50.90
41644;DHT22;44236;48.098;11.582;2023-04-24T01:42:51;21.00;51.00
41644;DHT22;44236;48.098;11.582;2023-04-24T01:45:16;21.00;51.00
41644;DHT22;44236;48.098;11.582;2023-04-24T01:47:42;21.00;50.90
41644;DHT22;44236;48.098;11.582;2023-04-24T01:50:09;21.00;51.00
41644;DHT22;44236;48.098;11.582;2023-04-24T01:52:35;21.00;50.90
41644;DHT22;44236;48.098;11.582;2023-04-24T01:55:02;21.00;51.00
41644;DHT22;44236;48.098;11.582;2023-04-24T01:57:28;21.00;51.00
41644;DHT22;44236;48.098;11.582;2023-04-24T01:59:55;21.00;50.90
41644;DHT22;44236;48.098;11.582;2023-04-24T02:02:21;21.00;50.90
41644;DHT22;44236;48.098;11.582;2023-04-24T02:04:49;21.00;50.90
41644;DHT22;44236;48.098;11.582;2023-04-24T02:07:15;20.90;50.90
41644;DHT22;44236;48.098;11.582;2023-04-24T02:09:44;20.90;50.90
41644;DHT22;44236;48.098;11.582;2023-04-24T02:12:10;20.90;50.80
41644;DHT22;44236;48.098;11.582;2023-04-24T02:14:36;20.90;50.80
41644;DHT22;44236;48.098;11.582;2023-04-24T02:17:01;20.90;50.90
41644;DHT22;44236;48.098;11.582;2023-04-24T02:19:27;20.90;50.80
41644;DHT22;44236;48.098;11.582;2023-04-24T02:21:53;20.90;50.90
41644;DHT22;44236;48.098;11.582;2023-04-24T02:24:18;20.90;50.80
41644;DHT22;44236;48.098;11.582;2023-04-24T02:26:44;20.90;50.90
41644;DHT22;44236;48.098;11.582;2023-04-24T02:29:10;20.90;50.80
41644;DHT22;44236;48.098;11.582;2023-04-24T02:31:35;20.90;50.80
41644;DHT22;44236;48.098;11.582;2023-04-24T02:34:01;20.90;50.90
41644;DHT22;44236;48.098;11.582;2023-04-24T02:36:27;20.90;50.80
41644;DHT22;44236;48.098;11.582;2023-04-24T02:38:52;20.90;50.80
41644;DHT22;44236;48.098;11.582;2023-04-24T02:41:18;20.90;50.80
41644;DHT22;44236;48.098;11.582;2023-04-24T02:43:44;20.90;50.80
41644;DHT22;44236;48.098;11.582;2023-04-24T02:46:12;20.90;50.80
41644;DHT22;44236;48.098;11.582;2023-04-24T02:48:38;20.80;50.80
41644;DHT22;44236;48.098;11.582;2023-04-24T02:51:04;20.90;50.70
41644;DHT22;44236;48.098;11.582;2023-04-24T02:53:29;20.80;50.60
41644;DHT22;44236;48.098;11.582;2023-04-24T02:55:56;20.80;50.70
41644;DHT22;44236;48.098;11.582;2023-04-24T02:58:22;20.80;50.70
41644;DHT22;44236;48.098;11.582;2023-04-24T03:00:47;20.80;50.80
41644;DHT22;44236;48.098;11.582;2023-04-24T03:03:13;20.80;50.70
41644;DHT22;44236;48.098;11.582;2023-04-24T03:05:39;20.80;50.60
41644;DHT22;44236;48.098;11.582;2023-04-24T03:08:05;20.80;50.60
41644;DHT22;44236;48.098;11.582;2023-04-24T03:10:31;20.80;50.70
41644;DHT22;44236;48.098;11.582;2023-04-24T03:12:57;20.80;50.70
41644;DHT22;44236;48.098;11.582;2023-04-24T03:15:23;20.80;50.70
41644;DHT22;44236;48.098;11.582;2023-04-24T03:17:49;20.80;50.70
41644;DHT22;44236;48.098;11.582;2023-04-24T03:20:16;20.80;50.80
41644;DHT22;44236;48.098;11.582;2023-04-24T03:22:41;20.80;50.70
41644;DHT22;44236;48.098;11.582;2023-04-24T03:25:07;20.70;50.60
41644;DHT22;44236;48.098;11.582;2023-04-24T03:27:34;20.70;50.50
41644;DHT22;44236;48.098;11.582;2023-04-24T03:30:00;20.80;50.60
41644;DHT22;44236;48.098;11.582;2023-04-24T03:32:26;20.80;50.70
41644;DHT22;44236;48.098;11.582;2023-04-24T03:34:51;20.70;50.60
41644;DHT22;44236;48.098;11.582;2023-04-24T03:37:17;20.70;50.70
41644;DHT22;44236;48.098;11.582;2023-04-24T03:39:43;20.70;50.60
41644;DHT22;44236;48.098;11.582;2023-04-24T03:42:08;20.70;50.60
41644;DHT22;44236;48.098;11.582;2023-04-24T03:44:35;20.70;50.60
41644;DHT22;44236;48.098;11.582;2023-04-24T03:47:01;20.70;50.60
41644;DHT22;44236;48.098;11.582;2023-04-24T03:49:27;20.70;50.60
41644;DHT22;44236;48.098;11.582;2023-04-24T03:51:52;20.70;50.40
41644;DHT22;44236;48.098;11.582;2023-04-24T03:54:19;20.70;50.50
41644;DHT22;44236;48.098;11.582;2023-04-24T03:56:45;20.70;50.40
41644;DHT22;44236;48.098;11.582;2023-04-24T03:59:10;20.70;50.50
41644;DHT22;44236;48.098;11.582;2023-04-24T04:01:36;20.70;50.50
41644;DHT22;44236;48.098;11.582;2023-04-24T04:04:03;20.70;50.60
41644;DHT22;44236;48.098;11.582;2023-04-24T04:06:29;20.70;50.50
41644;DHT22;44236;48.098;11.582;2023-04-24T04:08:56;20.60;50.40
41644;DHT22;44236;48.098;11.582;2023-04-24T04:11:22;20.60;50.50
41644;DHT22;44236;48.098;11.582;2023-04-24T04:13:47;20.60;50.50
41644;DHT22;44236;48.098;11.582;2023-04-24T04:16:13;20.60;50.50
41644;DHT22;44236;48.098;11.582;2023-04-24T04:18:39;20.60;50.40
41644;DHT22;44236;48.098;11.582;2023-04-24T04:21:05;20.60;50.40
41644;DHT22;44236;48.098;11.582;2023-04-24T04:23:30;20.60;50.60
41644;DHT22;44236;48.098;11.582;2023-04-24T04:25:57;20.60;50.90
41644;DHT22;44236;48.098;11.582;2023-04-24T04:28:23;20.60;50.40
41644;DHT22;44236;48.098;11.582;2023-04-24T04:30:50;20.60;50.30
41644;DHT22;44236;48.098;11.582;2023-04-24T04:33:19;20.60;50.40
41644;DHT22;44236;48.098;11.582;2023-04-24T04:35:45;20.60;50.40
41644;DHT22;44236;48.098;11.582;2023-04-24T04:38:14;20.60;50.30
41644;DHT22;44236;48.098;11.582;2023-04-24T04:40:40;20.70;50.30
41644;DHT22;44236;48.098;11.582;2023-04-24T04:43:06;20.70;50.30
41644;DHT22;44236;48.098;11.582;2023-04-24T04:45:32;20.70;50.30
41644;DHT22;44236;48.098;11.582;2023-04-24T04:47:58;20.70;50.20
41644;DHT22;44236;48.098;11.582;2023-04-24T04:50:26;20.70;50.20
41644;DHT22;44236;48.098;11.582;2023-04-24T04:52:52;20.70;50.10
41644;DHT22;44236;48.098;11.582;2023-04-24T04:55:18;20.70;50.10
41644;DHT22;44236;48.098;11.582;2023-04-24T04:57:45;20.70;50.00
41644;DHT22;44236;48.098;11.582;2023-04-24T05:00:11;20.70;50.00
41644;DHT22;44236;48.098;11.582;2023-04-24T05:02:38;20.80;50.10
41644;DHT22;44236;48.098;11.582;2023-04-24T05:05:04;20.70;50.00
41644;DHT22;44236;48.098;11.582;2023-04-24T05:07:31;20.80;50.10
41644;DHT22;44236;48.098;11.582;2023-04-24T05:09:56;20.70;50.10
41644;DHT22;44236;48.098;11.582;2023-04-24T05:12:22;20.70;50.00
41644;DHT22;44236;48.098;11.582;2023-04-24T05:14:47;20.80;50.10
41644;DHT22;44236;48.098;11.582;2023-04-24T05:17:16;20.80;50.00
41644;DHT22;44236;48.098;11.582;2023-04-24T05:19:42;20.80;50.00
41644;DHT22;44236;48.098;11.582;2023-04-24T05:22:08;20.80;49.90
41644;DHT22;44236;48.098;11.582;2023-04-24T05:24:35;20.80;50.00
41644;DHT22;44236;48.098;11.582;2023-04-24T05:27:04;20.80;50.00
41644;DHT22;44236;48.098;11.582;2023-04-24T05:29:30;20.80;50.00
41644;DHT22;44236;48.098;11.582;2023-04-24T05:31:57;20.80;50.10
41644;DHT22;44236;48.098;11.582;2023-04-24T05:34:22;20.80;50.10
41644;DHT22;44236;48.098;11.582;2023-04-24T05:36:48;20.80;50.10
41644;DHT22;44236;48.098;11.582;2023-04-24T05:39:16;20.80;50.10
41644;DHT22;44236;48.098;11.582;2023-04-24T05:41:41;20.80;50.10
41644;DHT22;44236;48.098;11.582;2023-04-24T05:44:07;20.80;50.10
41644;DHT22;44236;48.098;11.582;2023-04-24T05:46:33;20.80;50.00
41644;DHT22;44236;48.098;11.582;2023-04-24T05:48:58;20.80;50.10
41644;DHT22;44236;48.098;11.582;2023-04-24T05:51:24;20.80;50.00
41644;DHT22;44236;48.098;11.582;2023-04-24T05:53:50;20.90;50.00
41644;DHT22;44236;48.098;11.582;2023-04-24T05:56:15;20.90;50.10
41644;DHT22;44236;48.098;11.582;2023-04-24T05:58:41;20.90;50.10
41644;DHT22;44236;48.098;11.582;2023-04-24T06:01:07;20.90;49.90
41644;DHT22;44236;48.098;11.582;2023-04-24T06:03:32;20.90;50.10
41644;DHT22;44236;48.098;11.582;2023-04-24T06:05:58;20.90;50.10
41644;DHT22;44236;48.098;11.582;2023-04-24T06:08:24;20.90;50.00
41644;DHT22;44236;48.098;11.582;2023-04-24T06:10:50;20.90;50.20
41644;DHT22;44236;48.098;11.582;2023-04-24T06:13:16;20.90;50.00
41644;DHT22;44236;48.098;11.582;2023-04-24T06:15:42;20.90;50.00
41644;DHT22;44236;48.098;11.582;2023-04-24T06:18:08;20.90;50.00
41644;DHT22;44236;48.098;11.582;2023-04-24T06:20:35;20.90;50.00
41644;DHT22;44236;48.098;11.582;2023-04-24T06:23:01;20.90;49.90
41644;DHT22;44236;48.098;11.582;2023-04-24T06:25:28;20.90;49.90
41644;DHT22;44236;48.098;11.582;2023-04-24T06:27:54;20.90;50.00
41644;DHT22;44236;48.098;11.582;2023-04-24T06:30:20;20.90;49.30
41644;DHT22;44236;48.098;11.582;2023-04-24T06:32:45;21.00;49.80
41644;DHT22;44236;48.098;11.582;2023-04-24T06:35:11;21.00;49.30
41644;DHT22;44236;48.098;11.582;2023-04-24T06:37:39;21.00;49.80
41644;DHT22;44236;48.098;11.582;2023-04-24T06:40:05;21.00;50.20
41644;DHT22;44236;48.098;11.582;2023-04-24T06:42:31;21.00;50.00
41644;DHT22;44236;48.098;11.582;2023-04-24T06:44:57;21.00;50.00
41644;DHT22;44236;48.098;11.582;2023-04-24T06:47:22;21.00;49.80
41644;DHT22;44236;48.098;11.582;2023-04-24T06:49:48;21.00;49.70
41644;DHT22;44236;48.098;11.582;2023-04-24T06:52:16;21.00;49.50
41644;DHT22;44236;48.098;11.582;2023-04-24T06:54:42;21.00;49.20
41644;DHT22;44236;48.098;11.582;2023-04-24T06:57:08;21.00;49.20
41644;DHT22;44236;48.098;11.582;2023-04-24T06:59:34;21.00;49.10
41644;DHT22;44236;48.098;11.582;2023-04-24T07:02:00;21.10;48.90
41644;DHT22;44236;48.098;11.582;2023-04-24T07:04:25;21.10;49.10
41644;DHT22;44236;48.098;11.582;2023-04-24T07:06:51;21.10;48.90
41644;DHT22;44236;48.098;11.582;2023-04-24T07:09:19;21.20;48.90
41644;DHT22;44236;48.098;11.582;2023-04-24T07:11:45;21.20;48.90
41644;DHT22;44236;48.098;11.582;2023-04-24T07:14:11;21.20;48.70
41644;DHT22;44236;48.098;11.582;2023-04-24T07:16:37;21.20;48.80
41644;DHT22;44236;48.098;11.582;2023-04-24T07:19:03;21.20;48.70
41644;DHT22;44236;48.098;11.582;2023-04-24T07:21:29;21.20;48.80
41644;DHT22;44236;48.098;11.582;2023-04-24T07:23:56;21.20;48.80
41644;DHT22;44236;48.098;11.582;2023-04-24T07:26:22;21.20;48.70
41644;DHT22;44236;48.098;11.582;2023-04-24T07:28:47;21.20;48.70
41644;DHT22;44236;48.098;11.582;2023-04-24T07:31:13;21.20;49.20
41644;DHT22;44236;48.098;11.582;2023-04-24T07:33:39;21.20;49.00
41644;DHT22;44236;48.098;11.582;2023-04-24T07:36:04;21.20;49.10
41644;DHT22;44236;48.098;11.582;2023-04-24T07:38:30;21.10;49.10
41644;DHT22;44236;48.098;11.582;2023-04-24T07:40:56;21.20;49.00
41644;DHT22;44236;48.098;11.582;2023-04-24T07:43:22;21.30;48.90
41644;DHT22;44236;48.098;11.582;2023-04-24T07:45:52;21.30;48.70
41644;DHT22;44236;48.098;11.582;2023-04-24T07:48:17;21.20;49.10
41644;DHT22;44236;48.098;11.582;2023-04-24T07:50:44;21.20;49.00
41644;DHT22;44236;48.098;11.582;2023-04-24T07:53:10;21.20;49.30
41644;DHT22;44236;48.098;11.582;2023-04-24T07:55:39;21.20;49.30
41644;DHT22;44236;48.098;11.582;2023-04-24T07:58:05;21.20;49.40
41644;DHT22;44236;48.098;11.582;2023-04-24T08:00:31;21.20;49.20
41644;DHT22;44236;48.098;11.582;2023-04-24T08:02:56;21.20;49.30
41644;DHT22;44236;48.098;11.582;2023-04-24T08:05:22;21.20;49.30
41644;DHT22;44236;48.098;11.582;2023-04-24T08:07:47;21.20;49.10
41644;DHT22;44236;48.098;11.582;2023-04-24T08:10:15;21.20;49.40
41644;DHT22;44236;48.098;11.582;2023-04-24T08:12:41;21.20;49.30
41644;DHT22;44236;48.098;11.582;2023-04-24T08:15:07;21.20;49.20
41644;DHT22;44236;48.098;11.582;2023-04-24T08:17:34;21.20;49.40
41644;DHT22;44236;48.098;11.582;2023-04-24T08:20:01;21.20;49.30
41644;DHT22;44236;48.098;11.582;2023-04-24T08:22:27;21.20;49.40
41644;DHT22;44236;48.098;11.582;2023-04-24T08:24:54;21.20;49.40
41644;DHT22;44236;48.098;11.582;2023-04-24T08:27:19;21.20;49.30
41644;DHT22;44236;48.098;11.582;2023-04-24T08:29:45;21.20;49.40
41644;DHT22;44236;48.098;11.582;2023-04-24T08:32:11;21.20;49.20
41644;DHT22;44236;48.098;11.582;2023-04-24T08:34:36;21.20;49.40
41644;DHT22;44236;48.098;11.582;2023-04-24T08:37:02;21.20;49.30
41644;DHT22;44236;48.098;11.582;2023-04-24T08:39:28;21.20;49.30
41644;DHT22;44236;48.098;11.582;2023-04-24T08:41:55;21.20;49.30
41644;DHT22;44236;48.098;11.582;2023-04-24T08:44:21;21.20;49.30
41644;DHT22;44236;48.098;11.582;2023-04-24T08:46:48;21.20;49.40
41644;DHT22;44236;48.098;11.582;2023-04-24T08:49:14;21.20;49.50
41644;DHT22;44236;48.098;11.582;2023-04-24T08:51:44;21.20;49.50
41644;DHT22;44236;48.098;11.582;2023-04-24T08:54:13;21.20;49.40
41644;DHT22;44236;48.098;11.582;2023-04-24T08:56:40;21.20;49.40
41644;DHT22;44236;48.098;11.582;2023-04-24T08:59:08;21.20;49.40
41644;DHT22;44236;48.098;11.582;2023-04-24T09:01:34;21.10;49.20
41644;DHT22;44236;48.098;11.582;2023-04-24T09:04:03;21.10;49.30
41644;DHT22;44236;48.098;11.582;2023-04-24T09:06:30;21.10;49.30
41644;DHT22;44236;48.098;11.582;2023-04-24T09:09:00;21.10;49.30
41644;DHT22;44236;48.098;11.582;2023-04-24T09:11:26;21.10;49.20
41644;DHT22;44236;48.098;11.582;2023-04-24T09:13:53;21.10;49.30
41644;DHT22;44236;48.098;11.582;2023-04-24T09:16:20;21.10;49.10
41644;DHT22;44236;48.098;11.582;2023-04-24T09:18:46;21.10;49.10
41644;DHT22;44236;48.098;11.582;2023-04-24T09:21:11;21.10;49.10
41644;DHT22;44236;48.098;11.582;2023-04-24T09:23:38;21.10;49.20
41644;DHT22;44236;48.098;11.582;2023-04-24T09:26:04;21.10;49.10
41644;DHT22;44236;48.098;11.582;2023-04-24T09:28:31;21.10;49.00
41644;DHT22;44236;48.098;11.582;2023-04-24T09:31:11;21.10;49.00
41644;DHT22;44236;48.098;11.582;2023-04-24T09:33:38;21.10;49.10
41644;DHT22;44236;48.098;11.582;2023-04-24T09:36:04;21.10;49.10
41644;DHT22;44236;48.098;11.582;2023-04-24T09:38:35;21.10;49.10
41644;DHT22;44236;48.098;11.582;2023-04-24T09:41:04;21.10;49.10
41644;DHT22;44236;48.098;11.582;2023-04-24T09:43:30;21.10;49.00
41644;DHT22;44236;48.098;11.582;2023-04-24T09:45:57;21.10;49.00
41644;DHT22;44236;48.098;11.582;2023-04-24T09:48:31;21.20;49.00
41644;DHT22;44236;48.098;11.582;2023-04-24T09:50:57;21.10;48.90
41644;DHT22;44236;48.098;11.582;2023-04-24T09:53:27;21.10;48.90
41644;DHT22;44236;48.098;11.582;2023-04-24T09:55:53;21.10;48.90
41644;DHT22;44236;48.098;11.582;2023-04-24T09:58:25;21.10;48.80
41644;DHT22;44236;48.098;11.582;2023-04-24T10:00:56;21.10;49.00
41644;DHT22;44236;48.098;11.582;2023-04-24T10:03:24;21.10;48.70
41644;DHT22;44236;48.098;11.582;2023-04-24T10:05:52;21.10;48.90
41644;DHT22;44236;48.098;11.582;2023-04-24T10:08:19;21.20;48.90
41644;DHT22;44236;48.098;11.582;2023-04-24T10:10:46;21.10;48.90
41644;DHT22;44236;48.098;11.582;2023-04-24T10:13:13;21.20;48.80
41644;DHT22;44236;48.098;11.582;2023-04-24T10:15:40;21.20;48.70
41644;DHT22;44236;48.098;11.582;2023-04-24T10:18:07;21.20;48.80
41644;DHT22;44236;48.098;11.582;2023-04-24T10:20:35;21.20;48.90
41644;DHT22;44236;48.098;11.582;2023-04-24T10:23:01;21.20;48.90
41644;DHT22;44236;48.098;11.582;2023-04-24T10:25:31;21.20;48.70
41644;DHT22;44236;48.098;11.582;2023-04-24T10:27:58;21.20;48.80
41644;DHT22;44236;48.098;11.582;2023-04-24T10:30:27;21.20;48.90
41644;DHT22;44236;48.098;11.582;2023-04-24T10:32:53;21.20;48.90
41644;DHT22;44236;48.098;11.582;2023-04-24T10:35:19;21.20;48.80
41644;DHT22;44236;48.098;11.582;2023-04-24T10:38:02;21.10;48.70
41644;DHT22;44236;48.098;11.582;2023-04-24T10:40:33;21.10;48.70
41644;DHT22;44236;48.098;11.582;2023-04-24T10:43:01;21.10;48.70
41644;DHT22;44236;48.098;11.582;2023-04-24T10:45:28;21.10;48.70
41644;DHT22;44236;48.098;11.582;2023-04-24T10:50:41;21.10;48.80
41644;DHT22;44236;48.098;11.582;2023-04-24T10:53:12;21.10;48.90
41644;DHT22;44236;48.098;11.582;2023-04-24T10:55:52;21.10;48.80
41644;DHT22;44236;48.098;11.582;2023-04-24T10:58:23;21.10;48.90
41644;DHT22;44236;48.098;11.582;2023-04-24T11:00:57;21.10;49.10
41644;DHT22;44236;48.098;11.582;2023-04-24T11:03:27;21.10;49.40
41644;DHT22;44236;48.098;11.582;2023-04-24T11:05:59;21.30;49.60
41644;DHT22;44236;48.098;11.582;2023-04-24T11:10:57;21.10;49.50
41644;DHT22;44236;48.098;11.582;2023-04-24T11:13:25;21.10;49.70
41644;DHT22;44236;48.098;11.582;2023-04-24T11:18:39;21.20;49.90
41644;DHT22;44236;48.098;11.582;2023-04-24T11:21:12;21.20;49.70
41644;DHT22;44236;48.098;11.582;2023-04-24T11:23:39;21.20;49.30
41644;DHT22;44236;48.098;11.582;2023-04-24T11:28:44;21.20;49.80
41644;DHT22;44236;48.098;11.582;2023-04-24T11:31:44;21.20;49.80
41644;DHT22;44236;48.098;11.582;2023-04-24T11:34:15;21.30;49.80
41644;DHT22;44236;48.098;11.582;2023-04-24T11:36:48;21.30;49.70
41644;DHT22;44236;48.098;11.582;2023-04-24T11:39:14;21.30;49.80
41644;DHT22;44236;48.098;11.582;2023-04-24T11:41:40;21.30;49.50
41644;DHT22;44236;48.098;11.582;2023-04-24T11:44:08;21.30;49.90
41644;DHT22;44236;48.098;11.582;2023-04-24T11:46:33;21.30;50.10
41644;DHT22;44236;48.098;11.582;2023-04-24T11:48:59;21.30;50.20
41644;DHT22;44236;48.098;11.582;2023-04-24T11:51:27;21.30;50.10
41644;DHT22;44236;48.098;11.582;2023-04-24T11:53:56;21.30;50.30
41644;DHT22;44236;48.098;11.582;2023-04-24T11:56:23;21.30;50.50
41644;DHT22;44236;48.098;11.582;2023-04-24T11:58:48;21.30;50.50
41644;DHT22;44236;48.098;11.582;2023-04-24T12:01:17;21.30;50.70
41644;DHT22;44236;48.098;11.582;2023-04-24T12:03:47;21.30;50.80
41644;DHT22;44236;48.098;11.582;2023-04-24T12:06:13;21.30;50.90
41644;DHT22;44236;48.098;11.582;2023-04-24T12:08:39;21.30;51.00
41644;DHT22;44236;48.098;11.582;2023-04-24T12:11:06;21.30;51.00
41644;DHT22;44236;48.098;11.582;2023-04-24T12:13:33;21.30;51.00
41644;DHT22;44236;48.098;11.582;2023-04-24T12:15:59;22.90;51.80
41644;DHT22;44236;48.098;11.582;2023-04-24T12:18:26;21.30;50.90
41644;DHT22;44236;48.098;11.582;2023-04-24T12:20:51;21.30;50.90
41644;DHT22;44236;48.098;11.582;2023-04-24T12:23:35;21.30;50.90
41644;DHT22;44236;48.098;11.582;2023-04-24T12:26:04;21.30;50.70
41644;DHT22;44236;48.098;11.582;2023-04-24T12:28:37;21.30;50.80
41644;DHT22;44236;48.098;11.582;2023-04-24T12:31:03;21.30;50.70
41644;DHT22;44236;48.098;11.582;2023-04-24T12:33:33;21.30;50.60
41644;DHT22;44236;48.098;11.582;2023-04-24T12:35:59;21.30;50.70
41644;DHT22;44236;48.098;11.582;2023-04-24T12:38:28;21.30;50.60
41644;DHT22;44236;48.098;11.582;2023-04-24T12:41:06;21.30;50.60
41644;DHT22;44236;48.098;11.582;2023-04-24T12:43:32;21.30;50.60
41644;DHT22;44236;48.098;11.582;2023-04-24T12:45:58;21.30;50.70
41644;DHT22;44236;48.098;11.582;2023-04-24T12:48:25;21.30;50.70
41644;DHT22;44236;48.098;11.582;2023-04-24T12:50:51;21.30;50.50
41644;DHT22;44236;48.098;11.582;2023-04-24T12:53:17;21.30;50.60
41644;DHT22;44236;48.098;11.582;2023-04-24T12:55:43;21.30;50.40
41644;DHT22;44236;48.098;11.582;2023-04-24T12:58:09;21.30;50.40
41644;DHT22;44236;48.098;11.582;2023-04-24T13:00:35;21.30;50.40
41644;DHT22;44236;48.098;11.582;2023-04-24T13:03:01;21.30;50.30
41644;DHT22;44236;48.098;11.582;2023-04-24T13:05:27;21.30;50.30
41644;DHT22;44236;48.098;11.582;2023-04-24T13:07:53;21.30;50.40
41644;DHT22;44236;48.098;11.582;2023-04-24T13:10:18;21.30;50.50
41644;DHT22;44236;48.098;11.582;2023-04-24T13:12:44;21.30;50.40
41644;DHT22;44236;48.098;11.582;2023-04-24T13:15:11;21.30;50.50
41644;DHT22;44236;48.098;11.582;2023-04-24T13:17:37;21.40;51.40
41644;DHT22;44236;48.098;11.582;2023-04-24T13:20:04;21.40;51.80
41644;DHT22;44236;48.098;11.582;2023-04-24T13:22:29;21.40;54.60
41644;DHT22;44236;48.098;11.582;2023-04-24T13:24:55;21.40;54.10
41644;DHT22;44236;48.098;11.582;2023-04-24T13:27:21;21.40;52.10
41644;DHT22;44236;48.098;11.582;2023-04-24T13:29:47;21.40;52.00
41644;DHT22;44236;48.098;11.582;2023-04-24T13:32:12;21.30;51.30
41644;DHT22;44236;48.098;11.582;2023-04-24T13:34:38;21.30;51.20
41644;DHT22;44236;48.098;11.582;2023-04-24T13:37:04;21.30;51.10
41644;DHT22;44236;48.098;11.582;2023-04-24T13:39:30;21.30;51.20
41644;DHT22;44236;48.098;11.582;2023-04-24T13:41:57;21.30;51.20
41644;DHT22;44236;48.098;11.582;2023-04-24T13:44:23;21.30;51.20
41644;DHT22;44236;48.098;11.582;2023-04-24T13:46:51;21.30;51.10
41644;DHT22;44236;48.098;11.582;2023-04-24T13:49:17;21.30;51.00
41644;DHT22;44236;48.098;11.582;2023-04-24T13:51:43;21.30;50.90
41644;DHT22;44236;48.098;11.582;2023-04-24T13:54:09;21.30;51.10
41644;DHT22;44236;48.098;11.582;2023-04-24T13:56:35;21.10;46.90
41644;DHT22;44236;48.098;11.582;2023-04-24T13:59:01;20.50;44.60
41644;DHT22;44236;48.098;11.582;2023-04-24T14:01:27;20.10;44.00
41644;DHT22;44236;48.098;11.582;2023-04-24T14:03:53;20.00;44.70
41644;DHT22;44236;48.098;11.582;2023-04-24T14:06:19;19.90;44.20
41644;DHT22;44236;48.098;11.582;2023-04-24T14:08:46;19.80;44.70
41644;DHT22;44236;48.098;11.582;2023-04-24T14:11:12;19.80;45.20
41644;DHT22;44236;48.098;11.582;2023-04-24T14:13:38;20.00;46.10
41644;DHT22;44236;48.098;11.582;2023-04-24T14:16:04;20.20;47.20
41644;DHT22;44236;48.098;11.582;2023-04-24T14:18:33;20.30;47.40
41644;DHT22;44236;48.098;11.582;2023-04-24T14:20:59;20.40;47.60
41644;DHT22;44236;48.098;11.582;2023-04-24T14:23:26;20.50;47.70
41644;DHT22;44236;48.098;11.582;2023-04-24T14:25:52;20.50;47.70
41644;DHT22;44236;48.098;11.582;2023-04-24T14:28:19;20.60;47.80
41644;DHT22;44236;48.098;11.582;2023-04-24T14:30:45;20.60;48.00
41644;DHT22;44236;48.098;11.582;2023-04-24T14:33:11;20.70;47.90
41644;DHT22;44236;48.098;11.582;2023-04-24T14:35:38;20.70;45.90
41644;DHT22;44236;48.098;11.582;2023-04-24T14:38:04;20.60;43.70
41644;DHT22;44236;48.098;11.582;2023-04-24T14:40:29;20.60;43.60
41644;DHT22;44236;48.098;11.582;2023-04-24T14:42:56;20.50;43.10
41644;DHT22;44236;48.098;11.582;2023-04-24T14:45:23;20.50;43.20
41644;DHT22;44236;48.098;11.582;2023-04-24T14:47:49;20.40;42.50
41644;DHT22;44236;48.098;11.582;2023-04-24T14:50:18;20.40;41.10
41644;DHT22;44236;48.098;11.582;2023-04-24T14:52:44;20.20;40.70
41644;DHT22;44236;48.098;11.582;2023-04-24T14:55:10;20.10;40.90
41644;DHT22;44236;48.098;11.582;2023-04-24T14:57:36;20.10;41.00
41644;DHT22;44236;48.098;11.582;2023-04-24T15:00:05;20.10;41.20
41644;DHT22;44236;48.098;11.582;2023-04-24T15:02:33;20.10;41.00
41644;DHT22;44236;48.098;11.582;2023-04-24T15:04:59;20.10;41.40
41644;DHT22;44236;48.098;11.582;2023-04-24T15:07:25;20.10;40.60
41644;DHT22;44236;48.098;11.582;2023-04-24T15:09:50;20.10;40.20
41644;DHT22;44236;48.098;11.582;2023-04-24T15:12:16;20.10;40.20
41644;DHT22;44236;48.098;11.582;2023-04-24T15:14:42;20.00;40.20
41644;DHT22;44236;48.098;11.582;2023-04-24T15:17:07;20.00;40.00
41644;DHT22;44236;48.098;11.582;2023-04-24T15:19:33;20.00;39.60
41644;DHT22;44236;48.098;11.582;2023-04-24T15:21:59;20.00;39.30